sensor_id;sensor_type;location;lat;lon;timestamp;temperature;humidity
14771;DHT22;7477;45.222;5.688;2023-04-23T00:00:27;13.90;99.90
14771;DHT22;7477;45.222;5.688;2023-04-23T00:03:48;13.80;99.90
14771;DHT22;7477;45.222;5.688;2023-04-23T00:07:08;13.90;99.90
14771;DHT22;7477;45.222;5.688;2023-04-23T00:10:28;13.90;99.90
14771;DHT22;7477;45.222;5.688;2023-04-23T00:13:48;14.00;99.90
14771;DHT22;7477;45.222;5.688;2023-04-23T00:17:07;14.00;99.90
14771;DHT22;7477;45.222;5.688;2023-04-23T00:20:26;13.90;99.90
14771;DHT22;7477;45.222;5.688;2023-04-23T00:23:45;14.00;99.90
14771;DHT22;7477;45.222;5.688;2023-04-23T00:27:05;13.90;99.90
14771;DHT22;7477;45.222;5.688;2023-04-23T00:30:24;13.80;99.90
14771;DHT22;7477;45.222;5.688;2023-04-23T00:33:43;13.80;99.90
14771;DHT22;7477;45.222;5.688;2023-04-23T00:37:02;13.90;99.90
14771;DHT22;7477;45.222;5.688;2023-04-23T00:40:25;13.90;99.90
14771;DHT22;7477;45.222;5.688;2023-04-23T00:43:45;13.80;99.90
14771;DHT22;7477;45.222;5.688;2023-04-23T00:47:05;13.80;99.90
14771;DHT22;7477;45.222;5.688;2023-04-23T00:50:26;13.90;99.90
14771;DHT22;7477;45.222;5.688;2023-04-23T00:53:45;13.90;99.90
14771;DHT22;7477;45.222;5.688;2023-04-23T00:57:05;13.90;99.90
14771;DHT22;7477;45.222;5.688;2023-04-23T01:00:26;13.90;99.90
14771;DHT22;7477;45.222;5.688;2023-04-23T01:03:47;13.90;99.90
14771;DHT22;7477;45.222;5.688;2023-04-23T01:07:08;13.90;99.90
14771;DHT22;7477;45.222;5.688;2023-04-23T01:10:27;13.90;99.90
14771;DHT22;7477;45.222;5.688;2023-04-23T01:13:46;13.80;99.90
14771;DHT22;7477;45.222;5.688;2023-04-23T01:17:06;13.80;99.90
14771;DHT22;7477;45.222;5.688;2023-04-23T01:20:26;13.90;99.90
14771;DHT22;7477;45.222;5.688;2023-04-23T01:23:45;13.90;99.90
14771;DHT22;7477;45.222;5.688;2023-04-23T01:27:05;13.90;99.90
14771;DHT22;7477;45.222;5.688;2023-04-23T01:30:26;13.70;99.90
14771;DHT22;7477;45.222;5.688;2023-04-23T01:33:46;13.70;99.90
14771;DHT22;7477;45.222;5.688;2023-04-23T01:37:06;13.60;99.90
14771;DHT22;7477;45.222;5.688;2023-04-23T01:40:25;13.70;99.90
14771;DHT22;7477;45.222;5.688;2023-04-23T01:43:45;13.70;99.90
14771;DHT22;7477;45.222;5.688;2023-04-23T01:47:04;13.70;99.90
14771;DHT22;7477;45.222;5.688;2023-04-23T01:50:24;13.70;99.90
14771;DHT22;7477;45.222;5.688;2023-04-23T01:53:44;13.70;99.90
14771;DHT22;7477;45.222;5.688;2023-04-23T01:57:03;13.70;99.90
14771;DHT22;7477;45.222;5.688;2023-04-23T02:00:23;13.70;99.90
14771;DHT22;7477;45.222;5.688;2023-04-23T02:03:43;13.70;99.90
14771;DHT22;7477;45.222;5.688;2023-04-23T02:07:03;13.70;99.90
14771;DHT22;7477;45.222;5.688;2023-04-23T02:10:22;13.70;99.90
14771;DHT22;7477;45.222;5.688;2023-04-23T02:13:41;13.70;99.90
14771;DHT22;7477;45.222;5.688;2023-04-23T02:17:00;13.70;99.90
14771;DHT22;7477;45.222;5.688;2023-04-23T02:20:20;13.70;99.90
14771;DHT22;7477;45.222;5.688;2023-04-23T02:23:40;13.70;99.90
14771;DHT22;7477;45.222;5.688;2023-04-23T02:26:59;13.70;99.90
14771;DHT22;7477;45.222;5.688;2023-04-23T02:30:20;13.70;99.90
14771;DHT22;7477;45.222;5.688;2023-04-23T02:33:40;13.70;99.90
14771;DHT22;7477;45.222;5.688;2023-04-23T02:37:01;13.70;99.90
14771;DHT22;7477;45.222;5.688;2023-04-23T02:40:54;13.80;99.90
14771;DHT22;7477;45.222;5.688;2023-04-23T02:44:13;13.70;99.90
14771;DHT22;7477;45.222;5.688;2023-04-23T02:47:32;13.70;99.90
14771;DHT22;7477;45.222;5.688;2023-04-23T02:50:52;13.70;99.90
14771;DHT22;7477;45.222;5.688;2023-04-23T02:54:11;13.70;99.90
14771;DHT22;7477;45.222;5.688;2023-04-23T02:57:30;13.70;99.90
14771;DHT22;7477;45.222;5.688;2023-04-23T03:00:50;13.90;99.90
14771;DHT22;7477;45.222;5.688;2023-04-23T03:04:09;13.90;99.90
14771;DHT22;7477;45.222;5.688;2023-04-23T03:07:29;13.70;99.90
14771;DHT22;7477;45.222;5.688;2023-04-23T03:10:48;13.60;99.90
14771;DHT22;7477;45.222;5.688;2023-04-23T03:14:08;13.50;99.90
14771;DHT22;7477;45.222;5.688;2023-04-23T03:17:27;13.50;99.90
14771;DHT22;7477;45.222;5.688;2023-04-23T03:20:46;13.50;99.90
14771;DHT22;7477;45.222;5.688;2023-04-23T03:24:06;13.50;99.90
14771;DHT22;7477;45.222;5.688;2023-04-23T03:27:25;13.50;99.90
14771;DHT22;7477;45.222;5.688;2023-04-23T03:30:44;13.40;99.90
14771;DHT22;7477;45.222;5.688;2023-04-23T03:34:04;13.50;99.90
14771;DHT22;7477;45.222;5.688;2023-04-23T03:37:23;13.50;99.90
14771;DHT22;7477;45.222;5.688;2023-04-23T03:40:42;13.40;99.90
14771;DHT22;7477;45.222;5.688;2023-04-23T03:44:01;13.40;99.90
14771;DHT22;7477;45.222;5.688;2023-04-23T03:47:21;13.50;99.90
14771;DHT22;7477;45.222;5.688;2023-04-23T03:50:40;13.40;99.90
14771;DHT22;7477;45.222;5.688;2023-04-23T03:53:59;13.40;99.90
14771;DHT22;7477;45.222;5.688;2023-04-23T03:57:20;13.40;99.90
14771;DHT22;7477;45.222;5.688;2023-04-23T04:00:39;13.40;99.90
14771;DHT22;7477;45.222;5.688;2023-04-23T04:03:59;13.40;99.90
14771;DHT22;7477;45.222;5.688;2023-04-23T04:07:18;13.30;99.90
14771;DHT22;7477;45.222;5.688;2023-04-23T04:10:38;13.30;99.90
14771;DHT22;7477;45.222;5.688;2023-04-23T04:13:59;13.30;99.90
14771;DHT22;7477;45.222;5.688;2023-04-23T04:17:18;13.30;99.90
14771;DHT22;7477;45.222;5.688;2023-04-23T04:20:37;13.30;99.90
14771;DHT22;7477;45.222;5.688;2023-04-23T04:23:57;13.20;99.90
14771;DHT22;7477;45.222;5.688;2023-04-23T04:27:17;13.20;99.90
14771;DHT22;7477;45.222;5.688;2023-04-23T04:30:37;13.20;99.90
14771;DHT22;7477;45.222;5.688;2023-04-23T04:33:57;13.20;99.90
14771;DHT22;7477;45.222;5.688;2023-04-23T04:37:17;13.20;99.90
14771;DHT22;7477;45.222;5.688;2023-04-23T04:40:36;13.20;99.90
14771;DHT22;7477;45.222;5.688;2023-04-23T04:43:56;13.20;99.90
14771;DHT22;7477;45.222;5.688;2023-04-23T04:47:16;13.20;99.90
14771;DHT22;7477;45.222;5.688;2023-04-23T04:50:36;13.20;99.90
14771;DHT22;7477;45.222;5.688;2023-04-23T04:53:55;13.10;99.90
14771;DHT22;7477;45.222;5.688;2023-04-23T04:57:15;13.10;99.90
14771;DHT22;7477;45.222;5.688;2023-04-23T05:00:35;13.00;99.90
14771;DHT22;7477;45.222;5.688;2023-04-23T05:03:55;13.00;99.90
14771;DHT22;7477;45.222;5.688;2023-04-23T05:07:14;13.00;99.90
14771;DHT22;7477;45.222;5.688;2023-04-23T05:10:34;13.00;99.90
14771;DHT22;7477;45.222;5.688;2023-04-23T05:13:53;13.00;99.90
14771;DHT22;7477;45.222;5.688;2023-04-23T05:17:12;13.00;99.90
14771;DHT22;7477;45.222;5.688;2023-04-23T05:20:31;13.00;99.90
14771;DHT22;7477;45.222;5.688;2023-04-23T05:23:51;13.00;99.90
14771;DHT22;7477;45.222;5.688;2023-04-23T05:27:10;13.00;99.90
14771;DHT22;7477;45.222;5.688;2023-04-23T05:30:29;13.10;99.90
14771;DHT22;7477;45.222;5.688;2023-04-23T05:33:48;13.10;99.90
14771;DHT22;7477;45.222;5.688;2023-04-23T05:37:07;13.20;99.90
14771;DHT22;7477;45.222;5.688;2023-04-23T05:40:27;13.20;99.90
14771;DHT22;7477;45.222;5.688;2023-04-23T05:43:46;13.20;99.90
14771;DHT22;7477;45.222;5.688;2023-04-23T05:47:05;13.10;99.90
14771;DHT22;7477;45.222;5.688;2023-04-23T05:50:26;13.20;99.90
14771;DHT22;7477;45.222;5.688;2023-04-23T05:53:45;13.10;99.90
14771;DHT22;7477;45.222;5.688;2023-04-23T05:57:04;13.00;99.90
14771;DHT22;7477;45.222;5.688;2023-04-23T06:00:23;13.00;99.90
14771;DHT22;7477;45.222;5.688;2023-04-23T06:03:43;12.90;99.90
14771;DHT22;7477;45.222;5.688;2023-04-23T06:07:03;12.80;99.90
14771;DHT22;7477;45.222;5.688;2023-04-23T06:10:22;12.80;99.90
14771;DHT22;7477;45.222;5.688;2023-04-23T06:13:41;12.80;99.90
14771;DHT22;7477;45.222;5.688;2023-04-23T06:17:01;12.80;99.90
14771;DHT22;7477;45.222;5.688;2023-04-23T06:20:21;12.90;99.90
14771;DHT22;7477;45.222;5.688;2023-04-23T06:23:40;12.90;99.90
14771;DHT22;7477;45.222;5.688;2023-04-23T06:26:59;13.00;99.90
14771;DHT22;7477;45.222;5.688;2023-04-23T06:30:20;13.00;99.90
14771;DHT22;7477;45.222;5.688;2023-04-23T06:33:40;13.00;99.90
14771;DHT22;7477;45.222;5.688;2023-04-23T06:37:00;13.00;99.90
14771;DHT22;7477;45.222;5.688;2023-04-23T06:40:19;13.00;99.90
14771;DHT22;7477;45.222;5.688;2023-04-23T06:43:40;13.10;99.90
14771;DHT22;7477;45.222;5.688;2023-04-23T06:47:00;13.10;99.90
14771;DHT22;7477;45.222;5.688;2023-04-23T06:50:19;13.00;99.90
14771;DHT22;7477;45.222;5.688;2023-04-23T06:53:38;13.10;99.90
14771;DHT22;7477;45.222;5.688;2023-04-23T06:56:58;13.20;99.90
14771;DHT22;7477;45.222;5.688;2023-04-23T07:00:17;13.20;99.90
14771;DHT22;7477;45.222;5.688;2023-04-23T07:03:37;13.20;99.90
14771;DHT22;7477;45.222;5.688;2023-04-23T07:06:57;13.30;99.90
14771;DHT22;7477;45.222;5.688;2023-04-23T07:10:16;13.40;99.90
14771;DHT22;7477;45.222;5.688;2023-04-23T07:13:36;13.30;99.90
14771;DHT22;7477;45.222;5.688;2023-04-23T07:16:56;13.20;99.90
14771;DHT22;7477;45.222;5.688;2023-04-23T07:20:15;13.20;99.90
14771;DHT22;7477;45.222;5.688;2023-04-23T07:23:34;13.20;99.90
14771;DHT22;7477;45.222;5.688;2023-04-23T07:26:53;13.30;99.90
14771;DHT22;7477;45.222;5.688;2023-04-23T07:30:13;13.40;99.90
14771;DHT22;7477;45.222;5.688;2023-04-23T07:33:32;13.40;99.90
14771;DHT22;7477;45.222;5.688;2023-04-23T07:36:51;13.50;99.90
14771;DHT22;7477;45.222;5.688;2023-04-23T07:40:11;13.50;99.90
14771;DHT22;7477;45.222;5.688;2023-04-23T07:43:30;13.60;99.90
14771;DHT22;7477;45.222;5.688;2023-04-23T07:46:50;13.60;99.90
14771;DHT22;7477;45.222;5.688;2023-04-23T07:50:10;13.70;99.90
14771;DHT22;7477;45.222;5.688;2023-04-23T07:53:29;13.70;99.90
14771;DHT22;7477;45.222;5.688;2023-04-23T07:56:49;13.60;99.90
14771;DHT22;7477;45.222;5.688;2023-04-23T08:00:09;13.70;99.90
14771;DHT22;7477;45.222;5.688;2023-04-23T08:03:29;13.80;99.90
14771;DHT22;7477;45.222;5.688;2023-04-23T08:06:48;13.80;99.90
14771;DHT22;7477;45.222;5.688;2023-04-23T08:10:07;13.70;99.90
14771;DHT22;7477;45.222;5.688;2023-04-23T08:13:27;13.70;99.90
14771;DHT22;7477;45.222;5.688;2023-04-23T08:16:46;13.80;99.90
14771;DHT22;7477;45.222;5.688;2023-04-23T08:20:06;13.80;99.90
14771;DHT22;7477;45.222;5.688;2023-04-23T08:23:25;13.80;99.90
14771;DHT22;7477;45.222;5.688;2023-04-23T08:26:44;13.90;99.90
14771;DHT22;7477;45.222;5.688;2023-04-23T08:30:05;14.00;99.90
14771;DHT22;7477;45.222;5.688;2023-04-23T08:33:24;14.10;99.90
14771;DHT22;7477;45.222;5.688;2023-04-23T08:36:43;14.10;99.90
14771;DHT22;7477;45.222;5.688;2023-04-23T08:40:05;14.20;99.90
14771;DHT22;7477;45.222;5.688;2023-04-23T08:43:53;14.30;99.90
14771;DHT22;7477;45.222;5.688;2023-04-23T08:47:17;14.40;99.90
14771;DHT22;7477;45.222;5.688;2023-04-23T08:50:37;14.40;99.90
14771;DHT22;7477;45.222;5.688;2023-04-23T08:53:58;14.30;99.90
14771;DHT22;7477;45.222;5.688;2023-04-23T08:57:18;14.40;99.90
14771;DHT22;7477;45.222;5.688;2023-04-23T09:00:37;14.50;99.90
14771;DHT22;7477;45.222;5.688;2023-04-23T09:03:57;14.50;99.90
14771;DHT22;7477;45.222;5.688;2023-04-23T09:07:18;14.60;99.90
14771;DHT22;7477;45.222;5.688;2023-04-23T09:10:39;14.70;99.90
14771;DHT22;7477;45.222;5.688;2023-04-23T09:14:00;14.80;99.90
14771;DHT22;7477;45.222;5.688;2023-04-23T09:17:20;14.90;99.90
14771;DHT22;7477;45.222;5.688;2023-04-23T09:20:40;15.00;99.90
14771;DHT22;7477;45.222;5.688;2023-04-23T09:24:03;15.00;99.90
14771;DHT22;7477;45.222;5.688;2023-04-23T09:27:23;15.20;99.90
14771;DHT22;7477;45.222;5.688;2023-04-23T09:30:45;15.20;99.90
14771;DHT22;7477;45.222;5.688;2023-04-23T09:34:06;15.40;99.90
14771;DHT22;7477;45.222;5.688;2023-04-23T09:37:26;15.50;99.90
14771;DHT22;7477;45.222;5.688;2023-04-23T09:40:45;15.40;99.90
14771;DHT22;7477;45.222;5.688;2023-04-23T09:44:04;15.40;99.90
14771;DHT22;7477;45.222;5.688;2023-04-23T09:47:24;15.50;99.90
14771;DHT22;7477;45.222;5.688;2023-04-23T09:50:44;15.60;99.90
14771;DHT22;7477;45.222;5.688;2023-04-23T09:54:03;15.70;99.90
14771;DHT22;7477;45.222;5.688;2023-04-23T09:57:25;15.90;99.90
14771;DHT22;7477;45.222;5.688;2023-04-23T10:00:45;16.00;99.90
14771;DHT22;7477;45.222;5.688;2023-04-23T10:04:05;16.10;99.90
14771;DHT22;7477;45.222;5.688;2023-04-23T10:07:24;16.20;99.90
14771;DHT22;7477;45.222;5.688;2023-04-23T10:10:44;16.20;99.90
14771;DHT22;7477;45.222;5.688;2023-04-23T10:14:05;16.40;99.90
14771;DHT22;7477;45.222;5.688;2023-04-23T10:17:26;16.30;99.90
14771;DHT22;7477;45.222;5.688;2023-04-23T10:20:47;16.30;99.90
14771;DHT22;7477;45.222;5.688;2023-04-23T10:24:09;16.40;99.90
14771;DHT22;7477;45.222;5.688;2023-04-23T10:27:32;16.30;99.90
14771;DHT22;7477;45.222;5.688;2023-04-23T10:30:53;16.40;99.90
14771;DHT22;7477;45.222;5.688;2023-04-23T10:34:12;16.50;99.90
14771;DHT22;7477;45.222;5.688;2023-04-23T10:37:35;16.40;99.90
14771;DHT22;7477;45.222;5.688;2023-04-23T10:40:55;16.50;99.90
14771;DHT22;7477;45.222;5.688;2023-04-23T10:44:16;16.50;99.90
14771;DHT22;7477;45.222;5.688;2023-04-23T10:47:36;16.50;99.90
14771;DHT22;7477;45.222;5.688;2023-04-23T10:50:58;16.60;99.90
14771;DHT22;7477;45.222;5.688;2023-04-23T10:54:18;16.70;99.90
14771;DHT22;7477;45.222;5.688;2023-04-23T10:58:01;16.70;99.90
14771;DHT22;7477;45.222;5.688;2023-04-23T11:01:24;16.70;99.90
14771;DHT22;7477;45.222;5.688;2023-04-23T11:04:55;16.80;99.90
14771;DHT22;7477;45.222;5.688;2023-04-23T11:08:15;16.90;99.90
14771;DHT22;7477;45.222;5.688;2023-04-23T11:11:41;16.90;99.90
14771;DHT22;7477;45.222;5.688;2023-04-23T11:15:19;17.10;99.90
14771;DHT22;7477;45.222;5.688;2023-04-23T11:18:56;17.10;99.90
14771;DHT22;7477;45.222;5.688;2023-04-23T11:22:15;17.30;99.90
14771;DHT22;7477;45.222;5.688;2023-04-23T11:25:41;17.30;99.90
14771;DHT22;7477;45.222;5.688;2023-04-23T11:29:02;17.40;99.90
14771;DHT22;7477;45.222;5.688;2023-04-23T11:32:23;17.50;99.90
14771;DHT22;7477;45.222;5.688;2023-04-23T11:35:43;17.50;99.90
14771;DHT22;7477;45.222;5.688;2023-04-23T11:39:03;17.60;99.90
14771;DHT22;7477;45.222;5.688;2023-04-23T11:42:22;17.50;99.90
14771;DHT22;7477;45.222;5.688;2023-04-23T11:45:42;17.50;99.90
14771;DHT22;7477;45.222;5.688;2023-04-23T11:49:01;17.50;99.90
14771;DHT22;7477;45.222;5.688;2023-04-23T11:52:20;17.50;99.90
14771;DHT22;7477;45.222;5.688;2023-04-23T11:55:40;17.50;99.90
14771;DHT22;7477;45.222;5.688;2023-04-23T11:59:02;17.50;99.90
14771;DHT22;7477;45.222;5.688;2023-04-23T12:02:23;17.60;99.90
14771;DHT22;7477;45.222;5.688;2023-04-23T12:05:43;17.60;99.90
14771;DHT22;7477;45.222;5.688;2023-04-23T12:09:04;17.60;99.90
14771;DHT22;7477;45.222;5.688;2023-04-23T12:12:32;17.70;99.90
14771;DHT22;7477;45.222;5.688;2023-04-23T12:15:54;17.80;99.90
14771;DHT22;7477;45.222;5.688;2023-04-23T12:19:19;17.80;99.90
14771;DHT22;7477;45.222;5.688;2023-04-23T12:22:38;17.60;99.90
14771;DHT22;7477;45.222;5.688;2023-04-23T12:25:57;17.30;99.90
14771;DHT22;7477;45.222;5.688;2023-04-23T12:29:17;17.10;99.90
14771;DHT22;7477;45.222;5.688;2023-04-23T12:32:37;17.50;99.90
14771;DHT22;7477;45.222;5.688;2023-04-23T12:35:57;17.70;99.90
14771;DHT22;7477;45.222;5.688;2023-04-23T12:42:43;17.70;99.90
14771;DHT22;7477;45.222;5.688;2023-04-23T12:46:03;17.70;99.90
14771;DHT22;7477;45.222;5.688;2023-04-23T12:49:22;17.80;99.90
14771;DHT22;7477;45.222;5.688;2023-04-23T12:52:42;17.90;99.90
14771;DHT22;7477;45.222;5.688;2023-04-23T12:56:01;17.90;99.90
14771;DHT22;7477;45.222;5.688;2023-04-23T12:59:21;18.10;99.90
14771;DHT22;7477;45.222;5.688;2023-04-23T13:02:40;18.00;99.90
14771;DHT22;7477;45.222;5.688;2023-04-23T13:05:59;18.10;99.90
14771;DHT22;7477;45.222;5.688;2023-04-23T13:09:18;18.10;99.90
14771;DHT22;7477;45.222;5.688;2023-04-23T13:12:39;18.10;99.90
14771;DHT22;7477;45.222;5.688;2023-04-23T13:15:59;18.10;99.90
14771;DHT22;7477;45.222;5.688;2023-04-23T13:19:19;18.10;99.90
14771;DHT22;7477;45.222;5.688;2023-04-23T13:22:38;18.10;99.90
14771;DHT22;7477;45.222;5.688;2023-04-23T13:25:57;18.00;99.90
14771;DHT22;7477;45.222;5.688;2023-04-23T13:29:17;18.00;99.90
14771;DHT22;7477;45.222;5.688;2023-04-23T13:32:36;17.90;99.90
14771;DHT22;7477;45.222;5.688;2023-04-23T13:35:56;17.80;99.90
14771;DHT22;7477;45.222;5.688;2023-04-23T13:39:16;17.90;99.90
14771;DHT22;7477;45.222;5.688;2023-04-23T13:42:36;17.90;99.90
14771;DHT22;7477;45.222;5.688;2023-04-23T13:45:55;17.90;99.90
14771;DHT22;7477;45.222;5.688;2023-04-23T13:49:15;18.00;99.90
14771;DHT22;7477;45.222;5.688;2023-04-23T13:52:34;18.10;99.90
14771;DHT22;7477;45.222;5.688;2023-04-23T13:55:55;18.10;99.90
14771;DHT22;7477;45.222;5.688;2023-04-23T13:59:15;18.10;99.90
14771;DHT22;7477;45.222;5.688;2023-04-23T14:02:34;18.30;99.90
14771;DHT22;7477;45.222;5.688;2023-04-23T14:05:53;18.50;99.90
14771;DHT22;7477;45.222;5.688;2023-04-23T14:09:13;18.60;99.90
14771;DHT22;7477;45.222;5.688;2023-04-23T14:12:33;18.90;99.90
14771;DHT22;7477;45.222;5.688;2023-04-23T14:15:52;19.20;99.90
14771;DHT22;7477;45.222;5.688;2023-04-23T14:19:11;19.20;99.90
14771;DHT22;7477;45.222;5.688;2023-04-23T14:22:30;18.50;99.90
14771;DHT22;7477;45.222;5.688;2023-04-23T14:26:03;18.00;99.90
14771;DHT22;7477;45.222;5.688;2023-04-23T14:29:45;18.90;99.90
14771;DHT22;7477;45.222;5.688;2023-04-23T14:33:08;19.10;99.90
14771;DHT22;7477;45.222;5.688;2023-04-23T14:36:28;19.20;99.90
14771;DHT22;7477;45.222;5.688;2023-04-23T14:39:47;18.90;99.90
14771;DHT22;7477;45.222;5.688;2023-04-23T14:43:06;18.80;99.90
14771;DHT22;7477;45.222;5.688;2023-04-23T14:46:26;18.50;99.90
14771;DHT22;7477;45.222;5.688;2023-04-23T14:49:45;18.30;99.90
14771;DHT22;7477;45.222;5.688;2023-04-23T14:53:05;18.50;99.90
14771;DHT22;7477;45.222;5.688;2023-04-23T14:56:25;18.40;99.90
14771;DHT22;7477;45.222;5.688;2023-04-23T14:59:45;18.30;99.90
14771;DHT22;7477;45.222;5.688;2023-04-23T15:03:04;18.20;99.90
14771;DHT22;7477;45.222;5.688;2023-04-23T15:06:28;18.20;99.90
14771;DHT22;7477;45.222;5.688;2023-04-23T15:09:48;18.00;99.90
14771;DHT22;7477;45.222;5.688;2023-04-23T15:13:30;17.30;99.90
14771;DHT22;7477;45.222;5.688;2023-04-23T15:16:48;16.60;99.90
14771;DHT22;7477;45.222;5.688;2023-04-23T15:20:08;16.10;99.90
14771;DHT22;7477;45.222;5.688;2023-04-23T15:23:27;15.50;99.90
14771;DHT22;7477;45.222;5.688;2023-04-23T15:26:48;14.90;99.90
14771;DHT22;7477;45.222;5.688;2023-04-23T15:30:08;14.80;99.90
14771;DHT22;7477;45.222;5.688;2023-04-23T15:33:28;14.50;99.90
14771;DHT22;7477;45.222;5.688;2023-04-23T15:36:47;14.30;99.90
14771;DHT22;7477;45.222;5.688;2023-04-23T15:40:07;14.20;99.90
14771;DHT22;7477;45.222;5.688;2023-04-23T15:43:26;14.20;99.90
14771;DHT22;7477;45.222;5.688;2023-04-23T15:46:46;13.90;99.90
14771;DHT22;7477;45.222;5.688;2023-04-23T15:50:09;13.80;99.90
14771;DHT22;7477;45.222;5.688;2023-04-23T15:53:29;13.80;99.90
14771;DHT22;7477;45.222;5.688;2023-04-23T15:56:48;13.70;99.90
14771;DHT22;7477;45.222;5.688;2023-04-23T16:00:08;13.80;99.90
14771;DHT22;7477;45.222;5.688;2023-04-23T16:03:29;13.50;99.90
14771;DHT22;7477;45.222;5.688;2023-04-23T16:06:48;13.30;99.90
14771;DHT22;7477;45.222;5.688;2023-04-23T16:10:07;13.40;99.90
14771;DHT22;7477;45.222;5.688;2023-04-23T16:13:27;13.70;99.90
14771;DHT22;7477;45.222;5.688;2023-04-23T16:16:46;13.80;99.90
14771;DHT22;7477;45.222;5.688;2023-04-23T16:20:07;13.70;99.90
14771;DHT22;7477;45.222;5.688;2023-04-23T16:23:26;13.80;99.90
14771;DHT22;7477;45.222;5.688;2023-04-23T16:26:46;13.60;99.90
14771;DHT22;7477;45.222;5.688;2023-04-23T16:30:06;13.60;99.90
14771;DHT22;7477;45.222;5.688;2023-04-23T16:33:26;13.60;99.90
14771;DHT22;7477;45.222;5.688;2023-04-23T16:36:45;13.70;99.90
14771;DHT22;7477;45.222;5.688;2023-04-23T16:40:05;13.50;99.90
14771;DHT22;7477;45.222;5.688;2023-04-23T16:43:25;13.50;99.90
14771;DHT22;7477;45.222;5.688;2023-04-23T16:46:45;13.50;99.90
14771;DHT22;7477;45.222;5.688;2023-04-23T16:50:04;13.70;99.90
14771;DHT22;7477;45.222;5.688;2023-04-23T16:53:24;13.70;99.90
14771;DHT22;7477;45.222;5.688;2023-04-23T16:56:43;13.60;99.90
14771;DHT22;7477;45.222;5.688;2023-04-23T17:00:04;13.40;99.90
14771;DHT22;7477;45.222;5.688;2023-04-23T17:03:24;13.50;99.90
14771;DHT22;7477;45.222;5.688;2023-04-23T17:06:43;13.50;99.90
14771;DHT22;7477;45.222;5.688;2023-04-23T17:10:03;13.40;99.90
14771;DHT22;7477;45.222;5.688;2023-04-23T17:13:22;13.70;99.90
14771;DHT22;7477;45.222;5.688;2023-04-23T17:16:42;13.60;99.90
14771;DHT22;7477;45.222;5.688;2023-04-23T17:20:03;13.50;99.90
14771;DHT22;7477;45.222;5.688;2023-04-23T17:23:23;13.40;99.90
14771;DHT22;7477;45.222;5.688;2023-04-23T17:26:42;13.40;99.90
14771;DHT22;7477;45.222;5.688;2023-04-23T17:30:01;13.40;99.90
14771;DHT22;7477;45.222;5.688;2023-04-23T17:33:21;13.40;99.90
14771;DHT22;7477;45.222;5.688;2023-04-23T17:36:41;13.20;99.90
14771;DHT22;7477;45.222;5.688;2023-04-23T17:40:00;13.30;99.90
14771;DHT22;7477;45.222;5.688;2023-04-23T17:43:20;13.30;99.90
14771;DHT22;7477;45.222;5.688;2023-04-23T17:46:39;13.40;99.90
14771;DHT22;7477;45.222;5.688;2023-04-23T17:49:59;13.50;99.90
14771;DHT22;7477;45.222;5.688;2023-04-23T17:53:18;13.50;99.90
14771;DHT22;7477;45.222;5.688;2023-04-23T17:56:37;13.30;99.90
14771;DHT22;7477;45.222;5.688;2023-04-23T17:59:57;13.30;99.90
14771;DHT22;7477;45.222;5.688;2023-04-23T18:03:20;13.30;99.90
14771;DHT22;7477;45.222;5.688;2023-04-23T18:06:39;13.30;99.90
14771;DHT22;7477;45.222;5.688;2023-04-23T18:09:58;13.40;99.90
14771;DHT22;7477;45.222;5.688;2023-04-23T18:13:18;13.40;99.90
14771;DHT22;7477;45.222;5.688;2023-04-23T18:16:38;13.40;99.90
14771;DHT22;7477;45.222;5.688;2023-04-23T18:19:57;13.20;99.90
14771;DHT22;7477;45.222;5.688;2023-04-23T18:23:17;13.10;99.90
14771;DHT22;7477;45.222;5.688;2023-04-23T18:26:38;13.10;99.90
14771;DHT22;7477;45.222;5.688;2023-04-23T18:29:57;13.10;99.90
14771;DHT22;7477;45.222;5.688;2023-04-23T18:33:34;13.10;99.90
14771;DHT22;7477;45.222;5.688;2023-04-23T18:36:54;12.90;99.90
14771;DHT22;7477;45.222;5.688;2023-04-23T18:40:13;13.00;99.90
14771;DHT22;7477;45.222;5.688;2023-04-23T18:43:33;13.00;99.90
14771;DHT22;7477;45.222;5.688;2023-04-23T18:46:52;13.00;99.90
14771;DHT22;7477;45.222;5.688;2023-04-23T18:50:47;13.00;99.90
14771;DHT22;7477;45.222;5.688;2023-04-23T18:54:06;12.80;99.90
14771;DHT22;7477;45.222;5.688;2023-04-23T18:57:26;12.80;99.90
14771;DHT22;7477;45.222;5.688;2023-04-23T19:00:45;12.80;99.90
14771;DHT22;7477;45.222;5.688;2023-04-23T19:04:08;12.80;99.90
14771;DHT22;7477;45.222;5.688;2023-04-23T19:07:27;12.70;99.90
14771;DHT22;7477;45.222;5.688;2023-04-23T19:10:46;12.70;99.90
14771;DHT22;7477;45.222;5.688;2023-04-23T19:14:06;12.70;99.90
14771;DHT22;7477;45.222;5.688;2023-04-23T19:17:25;12.60;99.90
14771;DHT22;7477;45.222;5.688;2023-04-23T19:20:45;12.70;99.90
14771;DHT22;7477;45.222;5.688;2023-04-23T19:24:04;12.70;99.90
14771;DHT22;7477;45.222;5.688;2023-04-23T19:27:24;12.60;99.90
14771;DHT22;7477;45.222;5.688;2023-04-23T19:30:43;12.60;99.90
14771;DHT22;7477;45.222;5.688;2023-04-23T19:34:03;12.60;99.90
14771;DHT22;7477;45.222;5.688;2023-04-23T19:37:22;12.50;99.90
14771;DHT22;7477;45.222;5.688;2023-04-23T19:40:42;12.50;99.90
14771;DHT22;7477;45.222;5.688;2023-04-23T19:44:01;12.50;99.90
14771;DHT22;7477;45.222;5.688;2023-04-23T19:47:21;12.50;99.90
14771;DHT22;7477;45.222;5.688;2023-04-23T19:50:40;12.40;99.90
14771;DHT22;7477;45.222;5.688;2023-04-23T19:54:01;12.40;99.90
14771;DHT22;7477;45.222;5.688;2023-04-23T19:57:20;12.40;99.90
14771;DHT22;7477;45.222;5.688;2023-04-23T20:00:40;12.30;99.90
14771;DHT22;7477;45.222;5.688;2023-04-23T20:04:00;12.30;99.90
14771;DHT22;7477;45.222;5.688;2023-04-23T20:07:19;12.40;99.90
14771;DHT22;7477;45.222;5.688;2023-04-23T20:10:39;12.40;99.90
14771;DHT22;7477;45.222;5.688;2023-04-23T20:13:58;12.40;99.90
14771;DHT22;7477;45.222;5.688;2023-04-23T20:17:18;12.40;99.90
14771;DHT22;7477;45.222;5.688;2023-04-23T20:20:37;12.40;99.90
14771;DHT22;7477;45.222;5.688;2023-04-23T20:23:58;12.50;99.90
14771;DHT22;7477;45.222;5.688;2023-04-23T20:27:17;12.50;99.90
14771;DHT22;7477;45.222;5.688;2023-04-23T20:30:36;12.40;99.90
14771;DHT22;7477;45.222;5.688;2023-04-23T20:33:56;12.30;99.90
14771;DHT22;7477;45.222;5.688;2023-04-23T20:37:16;12.40;99.90
14771;DHT22;7477;45.222;5.688;2023-04-23T20:40:39;12.40;99.90
14771;DHT22;7477;45.222;5.688;2023-04-23T20:43:59;12.30;99.90
14771;DHT22;7477;45.222;5.688;2023-04-23T20:47:19;12.30;99.90
14771;DHT22;7477;45.222;5.688;2023-04-23T20:50:38;12.30;99.90
14771;DHT22;7477;45.222;5.688;2023-04-23T20:53:57;12.40;99.90
14771;DHT22;7477;45.222;5.688;2023-04-23T20:57:17;12.40;99.90
14771;DHT22;7477;45.222;5.688;2023-04-23T21:00:36;12.40;99.90
14771;DHT22;7477;45.222;5.688;2023-04-23T21:03:58;12.30;99.90
14771;DHT22;7477;45.222;5.688;2023-04-23T21:07:18;12.30;99.90
14771;DHT22;7477;45.222;5.688;2023-04-23T21:10:38;12.30;99.90
14771;DHT22;7477;45.222;5.688;2023-04-23T21:13:58;12.30;99.90
14771;DHT22;7477;45.222;5.688;2023-04-23T21:17:17;12.40;99.90
14771;DHT22;7477;45.222;5.688;2023-04-23T21:20:37;12.30;99.90
14771;DHT22;7477;45.222;5.688;2023-04-23T21:23:59;12.30;99.90
14771;DHT22;7477;45.222;5.688;2023-04-23T21:27:19;12.40;99.90